Time;durP1;ratioP1;P1;durP2;ratioP2;P2;SDS_P1;SDS_P2;PMS_P1;PMS_P2;Temp;Humidity;BMP_temperature;BMP_pressure;BME280_temperature;BME280_humidity;BME280_pressure;Samples;Min_cycle;Max_cycle;Signal;HPM_P1;HPM_P2
2023/07/08 00:01:29;;;;;;;8.48;4.30;;;;;;;19.69;73.66;101328.52;4972235;57;1138885;-77
2023/07/08 00:06:35;;;;;;;8.30;4.15;;;;;;;19.64;74.68;101323.12;4991564;57;1138815;-75
2023/07/08 00:11:40;;;;;;;5.65;4.42;;;;;;;19.61;73.99;101316.72;4971935;57;1138825;-78
2023/07/08 00:16:46;;;;;;;5.46;4.24;;;;;;;19.46;73.53;101317.42;5038203;57;1138944;-74
2023/07/08 00:21:52;;;;;;;4.50;4.10;;;;;;;19.46;74.10;101324.97;5073301;57;1138997;-77
2023/07/08 00:26:58;;;;;;;7.28;4.45;;;;;;;19.36;73.83;101315.34;5054509;57;1138547;-74
2023/07/08 00:32:06;;;;;;;15.27;5.70;;;;;;;19.35;74.60;101309.64;5054429;57;1138840;-74
2023/07/08 00:37:15;;;;;;;10.70;6.00;;;;;;;19.38;74.57;101310.17;5048741;57;1141251;-72
2023/07/08 00:42:23;;;;;;;6.10;4.80;;;;;;;19.38;74.72;101318.72;5024773;57;1141284;-78
2023/07/08 00:47:28;;;;;;;9.18;5.20;;;;;;;19.34;74.70;101308.80;5025391;57;1138798;-73
2023/07/08 00:52:36;;;;;;;6.25;4.25;;;;;;;19.30;74.78;101306.92;5043556;57;1138626;-74
2023/07/08 00:57:44;;;;;;;5.25;3.58;;;;;;;19.24;75.42;101304.03;5024203;57;1139022;-73
2023/07/08 01:02:54;;;;;;;4.70;4.22;;;;;;;19.23;75.88;101305.88;5053302;57;1138762;-77
2023/07/08 01:08:03;;;;;;;7.05;4.85;;;;;;;19.16;75.86;101300.77;5053422;57;1138766;-75
2023/07/08 01:13:12;;;;;;;8.60;4.62;;;;;;;19.11;76.33;101301.73;5066324;56;1138946;-69
2023/07/08 01:18:25;;;;;;;6.22;4.17;;;;;;;19.03;76.22;101296.81;5044248;56;1138818;-74
2023/07/08 01:23:27;;;;;;;5.30;4.05;;;;;;;19.00;76.71;101291.75;5048256;56;1138808;-72
2023/07/08 01:28:33;;;;;;;6.92;4.28;;;;;;;18.96;76.96;101289.38;5072471;57;1138880;-73
2023/07/08 01:33:38;;;;;;;8.90;4.65;;;;;;;18.95;77.24;101283.67;5048143;57;1138911;-76
2023/07/08 01:38:46;;;;;;;5.08;4.00;;;;;;;18.92;77.49;101290.70;4992445;57;1138595;-72
2023/07/08 01:43:52;;;;;;;3.90;3.58;;;;;;;18.86;77.47;101281.92;5042931;57;1139021;-77
2023/07/08 01:49:01;;;;;;;8.10;4.55;;;;;;;18.79;77.53;101283.52;5023227;57;1138779;-68
2023/07/08 01:54:07;;;;;;;15.70;4.52;;;;;;;18.71;77.43;101282.13;5042542;56;1138794;-77
2023/07/08 01:59:13;;;;;;;6.67;4.47;;;;;;;18.62;77.40;101276.35;5048614;57;1140892;-73
2023/07/08 02:04:18;;;;;;;10.57;4.80;;;;;;;18.51;77.62;101269.82;5035162;57;1138863;-73
2023/07/08 02:09:25;;;;;;;5.25;4.33;;;;;;;18.45;77.80;101271.78;5052368;57;1141005;-72
2023/07/08 02:14:30;;;;;;;4.47;4.08;;;;;;;18.36;78.33;101270.84;5075718;57;1138963;-74
2023/07/08 02:19:36;;;;;;;8.15;5.20;;;;;;;18.35;78.85;101279.02;5056058;57;1138958;-75
2023/07/08 02:24:41;;;;;;;7.30;4.20;;;;;;;18.33;78.77;101280.54;5043466;56;1138807;-72
2023/07/08 02:29:47;;;;;;;9.35;4.10;;;;;;;18.30;78.45;101281.33;5062486;56;1138897;-72
2023/07/08 02:34:53;;;;;;;9.38;4.30;;;;;;;18.18;78.33;101285.53;5010181;57;1138848;-70
2023/07/08 02:39:58;;;;;;;5.63;4.23;;;;;;;18.03;78.70;101280.82;4960659;58;1138704;-74
2023/07/08 02:45:04;;;;;;;4.62;4.25;;;;;;;17.82;78.32;101277.06;4960353;58;1138857;-74
2023/07/08 02:50:12;;;;;;;10.28;4.22;;;;;;;17.70;79.52;101278.25;4980290;58;1139013;-73
2023/07/08 02:55:17;;;;;;;6.03;4.40;;;;;;;17.65;80.24;101282.69;4960351;58;1141305;-73
2023/07/08 03:00:23;;;;;;;6.83;4.05;;;;;;;17.60;80.54;101291.60;4960721;57;1138876;-74
2023/07/08 03:05:29;;;;;;;9.87;4.83;;;;;;;17.61;81.45;101285.27;5046294;56;1138720;-73
2023/07/08 03:10:34;;;;;;;10.78;4.40;;;;;;;17.67;82.41;101283.88;4959425;58;1138909;-74
2023/07/08 03:15:40;;;;;;;8.73;5.20;;;;;;;17.73;82.80;101276.59;5042331;55;1140886;-74
2023/07/08 03:20:46;;;;;;;10.97;5.13;;;;;;;17.73;82.54;101280.60;4979155;58;1138820;-72
2023/07/08 03:25:52;;;;;;;5.78;5.17;;;;;;;17.72;82.60;101278.42;4998033;57;1140941;-72
2023/07/08 03:30:58;;;;;;;6.47;4.43;;;;;;;17.67;82.61;101280.72;5041467;57;1139111;-72
2023/07/08 03:36:09;;;;;;;9.65;4.75;;;;;;;17.48;82.42;101280.73;5037469;57;1138878;-74
2023/07/08 03:41:14;;;;;;;12.93;4.57;;;;;;;17.46;83.79;101286.22;5054227;57;1138941;-74
2023/07/08 03:46:23;;;;;;;11.85;5.10;;;;;;;17.43;84.12;101284.33;5034620;57;1141050;-75
2023/07/08 03:51:37;;;;;;;10.97;4.63;;;;;;;17.39;84.88;101284.29;5054270;57;1141105;-74
2023/07/08 03:56:42;;;;;;;8.68;4.65;;;;;;;17.32;85.03;101280.00;5051877;57;1140966;-72
2023/07/08 04:01:49;;;;;;;7.72;4.80;;;;;;;17.29;85.80;101275.42;5048918;56;1138902;-71
2023/07/08 04:06:55;;;;;;;5.33;4.63;;;;;;;17.37;86.95;101276.91;5052552;56;1139006;-73
2023/07/08 04:12:00;;;;;;;13.08;4.67;;;;;;;17.35;86.67;101277.53;5082682;55;1138999;-73
2023/07/08 04:17:06;;;;;;;10.43;4.53;;;;;;;17.38;87.21;101282.11;5066908;56;1140978;-75
2023/07/08 04:22:12;;;;;;;6.47;4.60;;;;;;;17.44;87.38;101284.68;5038111;56;1141080;-71
2023/07/08 04:27:19;;;;;;;7.90;4.57;;;;;;;17.56;88.93;101276.36;5050004;56;1138922;-74
2023/07/08 04:32:28;;;;;;;17.73;5.30;;;;;;;17.61;90.06;101273.23;5071527;56;1139324;-74
2023/07/08 04:37:33;;;;;;;8.90;5.72;;;;;;;17.68;90.47;101266.84;5043165;56;1140824;-71
2023/07/08 04:42:39;;;;;;;8.67;5.10;;;;;;;17.78;90.88;101260.95;5045415;56;1139087;-74
2023/07/08 04:47:46;;;;;;;12.67;5.03;;;;;;;17.82;90.57;101262.34;5060102;56;1138801;-71
2023/07/08 04:52:52;;;;;;;12.27;5.47;;;;;;;17.81;91.61;101270.02;5094445;56;1140990;-73
2023/07/08 04:57:57;;;;;;;10.70;4.30;;;;;;;17.87;92.61;101262.23;5050751;56;1141009;-72
2023/07/08 05:03:03;;;;;;;11.66;5.00;;;;;;;17.98;92.65;101254.52;5018321;56;1150424;-73
2023/07/08 05:08:10;;;;;;;9.78;5.72;;;;;;;18.13;92.86;101258.88;5046793;56;1141052;-72
2023/07/08 05:13:15;;;;;;;7.97;4.65;;;;;;;18.33;93.52;101259.61;5021638;56;1139424;-75
2023/07/08 05:18:21;;;;;;;9.50;4.83;;;;;;;18.57;94.31;101258.51;5026536;56;1138709;-74
2023/07/08 05:23:26;;;;;;;5.30;4.33;;;;;;;18.82;93.33;101258.26;5062848;56;1139051;-74
2023/07/08 05:28:32;;;;;;;9.25;4.83;;;;;;;19.04;92.08;101251.58;5048051;57;1138829;-72
2023/07/08 05:33:38;;;;;;;5.35;4.30;;;;;;;19.25;92.29;101250.70;5048838;57;1138817;-71
2023/07/08 05:38:44;;;;;;;5.00;3.80;;;;;;;19.52;91.34;101251.94;5068286;56;1139409;-73
2023/07/08 05:43:50;;;;;;;6.03;3.42;;;;;;;19.79;89.84;101246.03;5048535;56;1138717;-74
2023/07/08 05:48:55;;;;;;;4.60;3.67;;;;;;;20.07;87.32;101243.95;5052681;57;1138770;-72
2023/07/08 05:54:01;;;;;;;6.80;3.95;;;;;;;20.26;84.41;101245.02;5045683;57;1138787;-72
2023/07/08 05:59:07;;;;;;;4.95;2.80;;;;;;;20.49;81.10;101242.56;5086505;57;1138869;-76
2023/07/08 06:04:12;;;;;;;6.97;3.50;;;;;;;20.69;80.94;101233.19;5049716;57;1138878;-75
2023/07/08 06:09:18;;;;;;;2.85;2.65;;;;;;;20.95;80.75;101242.42;5043504;57;1151836;-71
2023/07/08 06:14:23;;;;;;;4.28;3.33;;;;;;;21.14;77.90;101238.05;5068565;57;1138701;-76
2023/07/08 06:19:29;;;;;;;6.53;2.97;;;;;;;21.33;77.32;101236.87;5043885;57;1138963;-71
2023/07/08 06:24:35;;;;;;;5.30;2.90;;;;;;;21.53;74.60;101241.38;5047414;57;1138835;-74
2023/07/08 06:29:40;;;;;;;6.47;3.30;;;;;;;21.76;73.51;101235.56;5068156;57;1138710;-70
2023/07/08 06:34:46;;;;;;;5.67;2.97;;;;;;;21.99;72.92;101234.30;5047288;57;1138886;-72
2023/07/08 06:39:52;;;;;;;5.45;2.30;;;;;;;22.07;69.53;101233.77;5077834;56;1139034;-73
2023/07/08 06:44:57;;;;;;;2.90;2.65;;;;;;;22.20;69.87;101241.78;5150002;56;1138667;-69
2023/07/08 06:50:03;;;;;;;3.33;3.03;;;;;;;22.38;69.85;101241.84;5077062;56;1138871;-73
2023/07/08 06:55:11;;;;;;;2.80;2.60;;;;;;;22.48;66.32;101240.77;5032794;56;1138809;-72
2023/07/08 07:00:17;;;;;;;7.22;2.80;;;;;;;22.52;66.79;101232.66;5022641;56;1138756;-74
2023/07/08 07:05:23;;;;;;;5.33;2.60;;;;;;;22.67;63.40;101241.13;4965449;58;1139302;-70
2023/07/08 07:10:28;;;;;;;3.22;2.90;;;;;;;22.80;62.08;101231.95;4887450;58;1138924;-74
2023/07/08 07:15:34;;;;;;;2.92;2.60;;;;;;;22.96;62.63;101232.32;4986231;57;1139011;-70
2023/07/08 07:20:41;;;;;;;4.08;2.77;;;;;;;23.18;63.05;101235.17;4975777;57;1138563;-71
2023/07/08 07:25:48;;;;;;;3.95;3.25;;;;;;;23.33;61.27;101227.93;5037390;57;1139037;-70
2023/07/08 07:31:01;;;;;;;2.55;2.35;;;;;;;23.49;61.53;101230.45;4983239;57;1138932;-75
2023/07/08 07:36:06;;;;;;;9.08;2.60;;;;;;;23.66;60.16;101227.09;4922259;58;1138950;-76
2023/07/08 07:41:12;;;;;;;2.87;2.57;;;;;;;23.84;59.16;101226.16;4968318;57;1138916;-77
2023/07/08 07:46:18;;;;;;;2.67;2.30;;;;;;;24.05;59.46;101226.23;5037725;57;1138750;-70
2023/07/08 07:51:24;;;;;;;4.92;2.42;;;;;;;24.30;59.53;101235.37;5028319;57;1138816;-74
2023/07/08 07:56:29;;;;;;;4.58;2.77;;;;;;;24.48;58.27;101237.13;4913068;58;1138909;-74
2023/07/08 08:01:35;;;;;;;3.05;2.72;;;;;;;24.70;56.75;101241.53;4951958;57;1139115;-74
